Time;durP1;ratioP1;P1;durP2;ratioP2;P2;SDS_P1;SDS_P2;PMS_P1;PMS_P2;Temp;Humidity;BMP_temperature;BMP_pressure;BME280_temperature;BME280_humidity;BME280_pressure;Samples;Min_cycle;Max_cycle;Signal;HPM_P1;HPM_P2
2021/06/03 00:00:54;;;;;;;2.73;2.53;;;21.30;85.50;;;21.29;43.00;101277.69;4927247;28;98722;-61
2021/06/03 00:03:21;;;;;;;3.10;2.90;;;21.30;85.30;;;21.25;43.20;101282.38;4924010;28;101631;-61
2021/06/03 00:05:55;;;;;;;3.10;2.47;;;21.30;85.40;;;21.26;43.08;101278.72;4923843;28;99815;-61
2021/06/03 00:08:26;;;;;;;2.60;2.33;;;21.30;85.20;;;21.25;43.01;101282.38;4931360;28;99787;-61
2021/06/03 00:10:57;;;;;;;2.60;1.67;;;21.30;85.20;;;21.25;43.09;101270.78;4912005;28;97089;-61
2021/06/03 00:13:27;;;;;;;2.00;1.70;;;21.30;85.30;;;21.21;43.18;101274.63;4929829;28;98931;-60
2021/06/03 00:15:55;;;;;;;1.90;1.80;;;21.30;85.20;;;21.20;43.03;101273.78;4925153;28;99409;-61
2021/06/03 00:18:21;;;;;;;2.10;1.90;;;21.20;85.20;;;21.17;43.28;101263.25;4918063;28;98194;-61
2021/06/03 00:20:47;;;;;;;2.50;2.30;;;21.20;85.40;;;21.15;43.06;101269.72;4954013;28;97568;-61
2021/06/03 00:23:13;;;;;;;2.40;2.20;;;21.20;85.40;;;21.14;43.15;101273.38;4961553;28;100240;-61
2021/06/03 00:25:40;;;;;;;1.70;1.60;;;21.20;85.50;;;21.14;43.25;101270.69;4925388;28;99073;-61
2021/06/03 00:28:06;;;;;;;5.20;3.30;;;21.20;85.50;;;21.16;44.82;101276.78;4926695;28;99212;-61
2021/06/03 00:30:33;;;;;;;4.37;3.33;;;21.20;88.30;;;21.15;44.86;101275.06;4924531;28;97451;-61
2021/06/03 00:33:00;;;;;;;3.13;2.87;;;21.20;88.10;;;21.16;46.19;101274.09;4925962;28;100318;-61
2021/06/03 00:35:26;;;;;;;1.90;1.80;;;21.20;89.00;;;21.15;43.33;101281.28;4928433;28;98547;-61
2021/06/03 00:37:52;;;;;;;2.30;2.10;;;21.20;85.90;;;21.12;43.38;101269.91;4925745;28;102630;-61
2021/06/03 00:40:20;;;;;;;3.57;2.97;;;21.10;85.90;;;21.11;45.38;101279.78;4930915;28;99428;-61
2021/06/03 00:42:47;;;;;;;4.47;3.43;;;21.10;87.70;;;21.15;50.74;101283.13;4922793;28;99634;-61
2021/06/03 00:45:30;;;;;;;5.43;3.63;;;21.20;93.00;;;21.17;46.67;101284.72;4915324;28;98756;-61
2021/06/03 00:47:57;;;;;;;6.20;3.30;;;21.20;89.10;;;21.15;50.65;101280.44;4921697;28;98572;-60
2021/06/03 00:50:37;;;;;;;4.50;4.10;;;21.20;93.80;;;21.19;52.65;101282.78;4930096;28;98678;-61
2021/06/03 00:53:07;;;;;;;5.70;3.60;;;21.20;94.90;;;21.19;53.23;101287.31;4921560;28;98204;-61
2021/06/03 00:55:35;;;;;;;3.50;3.13;;;21.20;95.30;;;21.14;50.92;101284.94;4930016;28;97406;-61
2021/06/03 00:58:02;;;;;;;5.47;3.83;;;21.10;95.20;;;21.13;53.73;101282.38;4903293;28;99542;-61
2021/06/03 01:00:28;;;;;;;4.07;3.67;;;21.10;96.00;;;21.09;49.82;101279.88;4926689;28;97275;-61
2021/06/03 01:02:54;;;;;;;4.47;3.93;;;21.10;95.60;;;21.09;53.91;101281.72;4920759;28;99580;-61
2021/06/03 01:05:28;;;;;;;5.97;4.00;;;21.10;96.50;;;21.09;53.71;101279.88;4927781;28;98994;-61
2021/06/03 01:07:58;;;;;;;4.07;3.77;;;21.10;96.50;;;21.05;49.50;101275.72;4935706;28;98488;-61
2021/06/03 01:10:30;;;;;;;3.40;3.10;;;21.00;95.70;;;21.01;45.68;101279.56;4927377;28;97518;-61
2021/06/03 01:13:42;;;;;;;3.63;3.33;;;21.00;91.40;;;21.02;45.93;101280.44;4952700;28;99652;-61
2021/06/03 01:16:09;;;;;;;4.23;3.37;;;21.00;91.90;;;20.98;49.08;101281.63;4939103;28;104043;-61
2021/06/03 01:18:38;;;;;;;4.03;2.83;;;21.00;92.70;;;21.01;53.52;101287.63;4923055;28;98370;-61
2021/06/03 01:21:22;;;;;;;3.97;3.57;;;21.00;96.20;;;21.03;54.19;101272.28;4909517;28;98248;-61
2021/06/03 01:23:58;;;;;;;4.93;4.03;;;21.00;96.60;;;21.01;54.14;101279.56;4921178;28;100595;-61
2021/06/03 01:26:25;;;;;;;3.63;3.33;;;21.00;96.80;;;20.99;54.50;101284.19;4928549;28;97290;-61
2021/06/03 01:28:51;;;;;;;3.60;3.30;;;20.90;97.20;;;20.98;54.94;101282.47;4907483;28;100609;-61
2021/06/03 01:31:17;;;;;;;5.00;3.37;;;20.90;97.50;;;20.98;53.72;101289.66;4933224;28;97464;-61
2021/06/03 01:33:43;;;;;;;3.20;2.90;;;20.90;97.40;;;20.98;54.31;101284.31;4922193;28;98298;-65
2021/06/03 01:36:14;;;;;;;3.70;3.40;;;20.90;97.30;;;20.97;55.24;101287.91;4914340;28;104920;-61
2021/06/03 01:38:42;;;;;;;3.30;3.00;;;20.90;97.70;;;20.94;53.93;101289.00;4924335;28;97695;-61
2021/06/03 01:41:10;;;;;;;4.60;3.73;;;20.90;97.30;;;20.94;53.49;101286.31;4926500;28;98975;-61
2021/06/03 01:43:42;;;;;;;4.80;3.50;;;20.90;97.00;;;20.94;54.48;101288.13;4952429;28;98469;-61
2021/06/03 01:46:09;;;;;;;4.73;3.57;;;20.80;97.50;;;20.91;54.54;101294.56;4924424;28;103306;-61
2021/06/03 01:48:35;;;;;;;4.40;3.60;;;20.80;97.80;;;20.91;54.88;101288.34;4923376;28;98833;-61
2021/06/03 01:51:08;;;;;;;4.60;3.80;;;20.80;98.10;;;20.89;47.72;101288.47;4923825;28;97790;-61
2021/06/03 01:53:34;;;;;;;4.50;4.10;;;20.80;94.40;;;20.88;50.95;101299.31;4937053;28;98553;-61
2021/06/03 01:56:09;;;;;;;6.27;4.07;;;20.80;95.20;;;20.91;54.69;101299.09;4923439;28;98790;-61
2021/06/03 01:58:35;;;;;;;7.20;4.17;;;20.80;97.80;;;20.89;55.47;101296.50;4939397;28;99176;-60
2021/06/03 02:01:02;;;;;;;4.63;4.00;;;20.80;98.20;;;20.88;54.98;101300.16;4924749;28;96894;-61
2021/06/03 02:03:28;;;;;;;4.00;3.50;;;20.80;98.20;;;20.86;55.27;101302.09;4925593;28;98858;-61
2021/06/03 02:05:54;;;;;;;4.57;3.70;;;20.80;98.50;;;20.85;55.09;101304.88;4921586;28;100603;-60
2021/06/03 02:08:21;;;;;;;4.93;4.03;;;20.70;98.30;;;20.82;55.21;101305.91;4924591;28;98221;-61
2021/06/03 02:10:47;;;;;;;4.60;3.67;;;20.70;98.40;;;20.77;55.92;101302.72;4920217;28;97656;-61
2021/06/03 02:13:25;;;;;;;4.67;4.10;;;20.60;99.00;;;20.76;56.14;101301.00;4928404;28;97669;-60
2021/06/03 02:16:10;;;;;;;5.37;4.03;;;20.60;99.10;;;20.76;55.45;101303.66;4916345;28;99520;-60
2021/06/03 02:19:01;;;;;;;4.40;4.00;;;20.60;99.00;;;20.73;55.61;101307.44;4928222;28;97885;-61
2021/06/03 02:21:28;;;;;;;5.57;3.77;;;20.60;98.90;;;20.70;54.88;101307.63;4922718;28;97576;-61
2021/06/03 02:23:57;;;;;;;2.80;2.57;;;20.60;98.50;;;20.69;50.60;101305.06;4923004;28;99845;-61
2021/06/03 02:26:24;;;;;;;5.60;4.20;;;20.60;96.60;;;20.72;54.94;101312.91;4904979;28;100256;-61
2021/06/03 02:28:50;;;;;;;3.30;3.00;;;20.60;98.50;;;20.71;52.83;101305.81;4923509;28;99413;-61
2021/06/03 02:31:16;;;;;;;3.50;3.00;;;20.60;97.20;;;20.71;48.73;101305.81;4920368;28;98628;-61
2021/06/03 02:33:43;;;;;;;4.37;4.07;;;20.60;94.40;;;20.73;49.33;101312.78;4927618;28;98147;-65
2021/06/03 02:36:10;;;;;;;4.77;4.27;;;20.70;95.60;;;20.76;49.18;101317.06;4941280;28;102418;-61
2021/06/03 02:38:36;;;;;;;6.43;4.60;;;20.70;95.00;;;20.76;52.18;101311.72;4970409;28;97374;-61
2021/06/03 02:41:06;;;;;;;3.70;3.40;;;20.70;96.00;;;20.76;48.71;101311.72;4927150;28;97078;-61
2021/06/03 02:43:35;;;;;;;4.03;2.97;;;20.70;93.50;;;20.77;52.07;101316.09;4935294;28;100106;-60
2021/06/03 02:46:01;;;;;;;4.97;4.00;;;20.70;95.30;;;20.78;51.37;101317.81;4929085;28;100355;-61
2021/06/03 02:48:27;;;;;;;5.17;3.90;;;20.70;96.70;;;20.76;54.54;101320.63;4941543;28;97311;-61
2021/06/03 02:50:53;;;;;;;4.40;4.00;;;20.70;98.20;;;20.73;55.48;101319.97;4965958;28;96893;-61
2021/06/03 02:53:19;;;;;;;5.47;3.93;;;20.60;98.70;;;20.72;54.15;101326.28;4988482;28;98889;-61
2021/06/03 02:55:45;;;;;;;4.77;4.23;;;20.60;98.00;;;20.70;55.06;101317.50;4944735;28;96858;-61
2021/06/03 02:58:12;;;;;;;4.67;4.20;;;20.60;98.70;;;20.71;54.83;101320.09;4936771;28;98251;-61
2021/06/03 03:00:38;;;;;;;5.77;3.90;;;20.60;98.60;;;20.70;55.38;101317.50;4952937;28;96975;-63
2021/06/03 03:03:08;;;;;;;4.67;4.00;;;20.60;98.90;;;20.70;54.08;101326.41;4950074;28;100296;-61
2021/06/03 03:05:39;;;;;;;4.97;4.50;;;20.50;99.10;;;20.71;54.21;101333.47;4956127;28;99118;-61
2021/06/03 03:08:06;;;;;;;5.43;4.40;;;20.50;98.80;;;20.69;54.07;101338.09;4947907;28;96882;-61
2021/06/03 03:10:38;;;;;;;4.90;4.40;;;20.50;99.10;;;20.68;54.51;101338.16;4957634;28;97150;-61
2021/06/03 03:13:06;;;;;;;4.57;4.10;;;20.50;99.50;;;20.65;55.96;101335.69;4948860;28;99733;-61
2021/06/03 03:15:33;;;;;;;4.93;4.43;;;20.50;99.70;;;20.62;56.18;101341.28;4990193;28;96786;-61
2021/06/03 03:17:59;;;;;;;4.13;3.77;;;20.40;99.90;;;20.59;56.13;101338.81;4942990;28;98991;-61
2021/06/03 03:20:28;;;;;;;4.60;4.20;;;20.40;99.90;;;20.58;55.83;101340.63;4954760;28;97034;-61
2021/06/03 03:22:55;;;;;;;6.30;4.57;;;20.40;99.80;;;20.57;55.82;101340.72;4960967;28;98170;-61
2021/06/03 03:25:23;;;;;;;5.17;3.57;;;20.30;99.90;;;20.56;54.33;101347.06;4959420;28;97289;-61
2021/06/03 03:27:51;;;;;;;4.07;3.70;;;20.30;99.40;;;20.56;54.61;101347.06;4946651;28;96595;-61
2021/06/03 03:30:20;;;;;;;3.90;3.50;;;20.30;99.60;;;20.56;53.04;101349.72;4955351;28;97097;-61
2021/06/03 03:32:47;;;;;;;4.20;3.80;;;20.40;99.80;;;20.55;55.52;101351.56;4965163;28;97333;-61
2021/06/03 03:35:14;;;;;;;4.17;3.80;;;20.40;99.90;;;20.53;52.08;101352.59;4952330;28;97244;-61
2021/06/03 03:37:42;;;;;;;5.57;4.23;;;20.30;98.70;;;20.51;56.04;101350.03;4969387;28;97291;-61
2021/06/03 03:40:13;;;;;;;4.70;4.13;;;20.30;99.90;;;20.52;55.96;101356.22;4932060;28;97531;-61
2021/06/03 03:42:39;;;;;;;4.20;3.90;;;20.30;99.90;;;20.48;55.24;101355.59;4916983;28;97792;-61
2021/06/03 03:45:08;;;;;;;4.10;3.50;;;20.20;99.90;;;20.47;54.67;101357.41;4944823;28;98566;-61
2021/06/03 03:47:34;;;;;;;5.87;3.70;;;20.20;99.90;;;20.44;55.84;101354.94;4946347;28;96878;-61
2021/06/03 03:50:00;;;;;;;3.73;3.27;;;20.20;99.90;;;20.43;54.23;101355.91;4927310;28;96689;-61
2021/06/03 03:52:25;;;;;;;5.73;3.50;;;20.20;99.90;;;20.43;54.86;101363.94;4936593;28;98482;-60
2021/06/03 03:54:51;;;;;;;3.87;3.40;;;20.20;99.50;;;20.41;55.79;101365.88;4922803;28;99761;-60
2021/06/03 03:57:18;;;;;;;4.17;3.60;;;20.20;99.90;;;20.40;54.60;101364.13;4947525;28;98327;-61
2021/06/03 03:59:44;;;;;;;4.60;3.40;;;20.20;99.80;;;20.40;56.10;101356.06;4944466;28;97632;-61
2021/06/03 04:02:10;;;;;;;3.50;3.20;;;20.20;99.90;;;20.41;55.96;101373.91;4987516;28;100572;-60
2021/06/03 04:04:57;;;;;;;4.40;3.03;;;20.20;99.90;;;20.42;55.21;101372.94;4946414;28;108847;-61
2021/06/03 04:07:23;;;;;;;5.07;3.43;;;20.20;99.90;;;20.40;54.69;101374.84;4934118;28;97092;-61
2021/06/03 04:09:49;;;;;;;4.27;3.50;;;20.20;99.90;;;20.40;54.60;101374.84;4960481;28;96689;-61
2021/06/03 04:12:15;;;;;;;3.70;3.23;;;20.20;99.90;;;20.42;55.17;101383.66;4966669;28;99152;-61
2021/06/03 04:14:41;;;;;;;4.43;3.37;;;20.20;99.90;;;20.43;53.98;101390.72;4964377;28;98208;-61
2021/06/03 04:17:07;;;;;;;3.90;3.60;;;20.20;99.90;;;20.41;52.98;101384.63;4981822;28;97432;-61
2021/06/03 04:19:33;;;;;;;3.60;3.30;;;20.20;99.90;;;20.42;54.12;101389.03;4969494;28;97129;-61
2021/06/03 04:21:59;;;;;;;5.00;3.70;;;20.20;99.90;;;20.42;55.29;101394.38;4950650;28;98690;-61
2021/06/03 04:24:26;;;;;;;3.23;3.03;;;20.20;99.90;;;20.42;54.15;101389.03;4938924;28;99058;-61
2021/06/03 04:26:52;;;;;;;3.83;2.83;;;20.20;99.90;;;20.43;51.60;101380.00;4944239;28;97787;-61
2021/06/03 04:29:18;;;;;;;4.23;3.00;;;20.30;99.00;;;20.47;53.82;101380.66;4952683;28;97502;-61
2021/06/03 04:31:44;;;;;;;3.27;2.97;;;20.30;99.90;;;20.48;54.83;101385.91;4944640;28;97510;-62
2021/06/03 04:34:10;;;;;;;4.67;3.30;;;20.30;99.90;;;20.50;55.50;101385.81;4970218;28;98505;-61
2021/06/03 04:36:35;;;;;;;3.53;3.20;;;20.30;99.90;;;20.50;52.99;101386.69;4942954;28;97247;-61
2021/06/03 04:39:01;;;;;;;2.70;2.50;;;20.30;99.90;;;20.48;49.42;101388.59;4969020;28;109353;-61
2021/06/03 04:41:27;;;;;;;3.47;3.10;;;20.30;97.50;;;20.50;56.26;101386.69;4946267;28;100292;-61
2021/06/03 04:43:53;;;;;;;3.93;3.30;;;20.30;99.90;;;20.53;54.52;101395.47;4929502;28;99097;-61
2021/06/03 04:46:19;;;;;;;4.50;3.40;;;20.30;99.90;;;20.53;53.74;101390.09;4948238;28;97078;-60
2021/06/03 04:48:45;;;;;;;2.77;2.57;;;20.40;99.90;;;20.56;52.45;101400.66;4949998;28;97423;-61
2021/06/03 04:51:11;;;;;;;3.40;3.10;;;20.40;99.80;;;20.53;55.29;101408.88;4946505;28;100187;-61
2021/06/03 04:53:36;;;;;;;3.20;2.90;;;20.30;99.90;;;20.54;55.04;101413.25;4953602;28;97605;-61
2021/06/03 04:56:03;;;;;;;5.33;3.37;;;20.30;99.90;;;20.54;56.05;101413.25;4940602;28;97524;-61
2021/06/03 04:58:30;;;;;;;3.87;3.20;;;20.30;99.90;;;20.55;55.75;101405.16;4947426;28;97343;-61
2021/06/03 05:00:56;;;;;;;4.50;3.43;;;20.30;99.90;;;20.56;55.13;101406.00;4946066;28;96945;-61
2021/06/03 05:03:21;;;;;;;4.10;2.90;;;20.40;99.90;;;20.56;55.23;101411.38;4948045;28;99026;-61
2021/06/03 05:05:47;;;;;;;3.60;2.80;;;20.40;99.90;;;20.56;56.74;101417.59;4947310;28;97338;-60
2021/06/03 05:08:13;;;;;;;3.70;3.03;;;20.40;99.90;;;20.54;57.72;101413.25;4950336;28;97071;-61
2021/06/03 05:10:41;;;;;;;4.37;3.53;;;20.30;99.90;;;20.55;56.42;101415.03;4955300;28;99385;-61
2021/06/03 05:13:08;;;;;;;3.83;3.10;;;20.30;99.90;;;20.54;56.87;101423.97;4939988;28;96955;-61
2021/06/03 05:15:35;;;;;;;3.57;3.27;;;20.30;99.90;;;20.55;58.48;101420.38;4968958;28;97594;-61
2021/06/03 05:18:00;;;;;;;5.57;3.40;;;20.30;99.90;;;20.55;56.37;101420.38;4944643;28;97567;-61
2021/06/03 05:20:28;;;;;;;3.67;3.37;;;20.40;99.90;;;20.54;57.79;101416.81;4949538;28;109798;-61
2021/06/03 05:22:58;;;;;;;4.23;3.83;;;20.40;99.90;;;20.56;57.33;101422.09;4927578;28;99775;-61
2021/06/03 05:25:27;;;;;;;4.60;3.63;;;20.40;99.90;;;20.56;53.80;101428.31;4952331;28;97586;-61
2021/06/03 05:27:54;;;;;;;6.20;5.57;;;20.40;99.70;;;20.57;58.38;101431.84;4954623;28;97682;-61
2021/06/03 05:30:21;;;;;;;9.47;8.40;;;20.40;99.90;;;20.59;58.89;101437.97;4967078;28;97631;-61
2021/06/03 05:32:47;;;;;;;11.37;10.27;;;20.50;99.90;;;20.57;57.65;101430.03;4929576;28;100233;-61
2021/06/03 05:35:16;;;;;;;11.10;10.00;;;20.40;99.90;;;20.59;58.49;101440.66;4949477;28;96813;-61
2021/06/03 05:37:43;;;;;;;9.00;8.10;;;20.50;99.90;;;20.59;58.13;101435.28;4932069;28;97425;-61
2021/06/03 05:40:13;;;;;;;8.47;7.47;;;20.50;99.90;;;20.63;58.82;101439.47;4963817;28;103610;-61
2021/06/03 05:42:39;;;;;;;6.20;5.70;;;20.50;99.90;;;20.62;56.65;101437.75;4934020;28;98875;-61
2021/06/03 05:45:08;;;;;;;6.40;5.80;;;20.50;99.90;;;20.66;58.46;101441.94;4945355;28;97461;-61
2021/06/03 05:47:38;;;;;;;4.93;4.43;;;20.60;99.90;;;20.67;56.85;101441.84;4983526;28;97304;-61
2021/06/03 05:50:08;;;;;;;4.80;4.23;;;20.60;99.90;;;20.69;57.89;101444.47;4945948;28;99208;-61
2021/06/03 05:52:35;;;;;;;2.73;2.53;;;20.60;99.90;;;20.68;48.66;101448.06;4950836;28;98512;-61
2021/06/03 05:55:01;;;;;;;3.80;3.50;;;20.70;96.10;;;20.72;48.87;101449.63;4943381;28;97004;-61
2021/06/03 05:57:27;;;;;;;2.97;2.77;;;20.70;95.90;;;20.77;47.35;101458.19;4946339;28;97363;-61
2021/06/03 05:59:54;;;;;;;4.57;3.00;;;20.70;94.80;;;20.78;48.03;101454.56;4936575;28;100771;-61
2021/06/03 06:02:28;;;;;;;2.03;1.93;;;20.80;94.80;;;20.79;46.75;101451.78;4967546;28;97072;-61
2021/06/03 06:07:38;;;;;;;3.70;3.07;;;20.80;93.80;;;20.86;51.06;101464.78;4953049;28;99617;-60
2021/06/03 06:10:06;;;;;;;2.43;2.27;;;20.90;95.70;;;20.88;46.84;101463.72;4940370;28;108993;-61
2021/06/03 06:12:31;;;;;;;2.43;2.23;;;20.90;93.70;;;20.90;46.68;101464.47;4938304;28;98000;-61
2021/06/03 06:14:57;;;;;;;2.30;2.10;;;20.90;94.20;;;20.94;46.49;101471.34;4943191;28;97733;-61
2021/06/03 06:17:23;;;;;;;2.63;2.43;;;20.90;93.90;;;20.96;46.22;101466.75;4956927;28;98523;-61
2021/06/03 06:19:49;;;;;;;2.13;1.93;;;20.90;93.20;;;20.98;46.36;101469.34;4928701;28;99621;-61
2021/06/03 06:22:16;;;;;;;3.83;3.23;;;21.00;93.40;;;21.02;47.23;101478.91;4954782;28;97540;-61
2021/06/03 06:24:46;;;;;;;4.03;3.00;;;21.00;94.20;;;21.07;56.50;101482.97;4948448;28;101265;-61
2021/06/03 06:27:12;;;;;;;3.40;3.10;;;21.10;99.90;;;21.08;54.30;101483.84;4933854;28;98613;-61
2021/06/03 06:29:37;;;;;;;2.60;2.40;;;21.10;99.90;;;21.10;52.59;101488.13;4951103;28;97212;-61
2021/06/03 06:32:04;;;;;;;3.23;2.70;;;21.10;97.10;;;21.12;48.12;101495.22;4951293;28;96762;-61
2021/06/03 06:34:30;;;;;;;2.83;2.60;;;21.10;96.60;;;21.12;46.04;101495.22;4937773;28;97285;-61
2021/06/03 06:36:56;;;;;;;2.17;1.97;;;21.10;93.60;;;21.14;49.91;101502.22;4944978;28;97049;-61
2021/06/03 06:39:22;;;;;;;2.90;2.60;;;21.10;94.50;;;21.15;47.08;101511.13;4970834;28;96814;-61
2021/06/03 06:41:47;;;;;;;3.60;3.03;;;21.10;94.10;;;21.19;53.36;101507.28;4943231;28;97099;-61
2021/06/03 06:44:14;;;;;;;3.80;2.93;;;21.20;98.20;;;21.19;49.84;101507.28;4952519;28;100778;-61
2021/06/03 06:46:40;;;;;;;3.37;2.73;;;21.20;95.00;;;21.24;55.35;101515.88;4929055;28;101007;-61
2021/06/03 06:49:06;;;;;;;4.80;2.93;;;21.20;99.40;;;21.22;47.35;101513.28;4949523;28;110444;-60
2021/06/03 06:51:32;;;;;;;3.33;3.00;;;21.30;95.20;;;21.26;49.48;101519.34;4959886;28;96806;-61
2021/06/03 06:53:58;;;;;;;2.70;2.50;;;21.30;97.30;;;21.26;48.32;101519.34;4946601;28;99354;-61
2021/06/03 06:56:24;;;;;;;3.70;2.57;;;21.30;96.20;;;21.25;47.96;101528.34;4938056;28;98611;-61
2021/06/03 06:58:50;;;;;;;4.00;2.47;;;21.30;94.90;;;21.22;47.72;101528.53;4947681;28;100168;-61
2021/06/03 07:01:16;;;;;;;4.07;3.17;;;21.20;94.80;;;21.24;48.77;101529.28;4943194;28;97406;-60
2021/06/03 07:03:41;;;;;;;5.10;3.60;;;21.30;97.20;;;21.23;52.89;101532.94;4947050;28;97012;-61
2021/06/03 07:06:07;;;;;;;4.97;4.10;;;21.20;97.30;;;21.25;62.25;101534.59;4942462;28;97598;-61
2021/06/03 07:08:33;;;;;;;6.70;4.47;;;21.20;99.90;;;21.23;66.93;101532.94;4964644;28;99073;-61
2021/06/03 07:10:59;;;;;;;6.27;4.50;;;21.30;99.90;;;21.19;67.94;101532.28;4942597;28;100065;-61
2021/06/03 07:13:25;;;;;;;5.87;3.93;;;21.20;99.90;;;21.08;49.77;101511.53;4966763;28;97738;-61
2021/06/03 07:15:50;;;;;;;3.93;3.23;;;21.10;98.00;;;21.03;48.56;101518.16;4968238;28;96913;-61
2021/06/03 07:18:16;;;;;;;3.13;2.83;;;21.00;96.20;;;21.01;48.07;101520.97;4964738;28;101771;-60
2021/06/03 07:20:42;;;;;;;3.03;2.50;;;21.00;96.60;;;21.00;47.80;101519.25;4941462;28;99860;-61
2021/06/03 07:23:08;;;;;;;5.57;4.70;;;21.00;96.20;;;21.04;50.85;101525.25;4947646;28;97399;-60
2021/06/03 07:25:37;;;;;;;6.40;5.40;;;21.00;99.30;;;21.10;66.82;101525.69;4956543;28;96613;-61
2021/06/03 07:28:04;;;;;;;4.30;3.90;;;21.10;99.90;;;21.02;49.00;101513.78;4932491;28;99130;-61
2021/06/03 07:30:31;;;;;;;8.07;5.20;;;21.00;97.80;;;21.07;67.39;101520.53;4951617;28;98251;-61
2021/06/03 07:32:58;;;;;;;6.47;5.30;;;21.00;99.90;;;21.03;65.95;101524.41;4945080;28;96790;-61
2021/06/03 07:35:28;;;;;;;5.67;5.17;;;21.10;99.90;;;21.00;64.51;101510.34;4952492;28;97959;-61
2021/06/03 07:37:54;;;;;;;7.20;4.90;;;21.00;99.90;;;20.94;51.33;101514.25;4964300;28;100056;-61
2021/06/03 07:40:24;;;;;;;6.83;5.37;;;20.90;99.90;;;21.01;70.06;101518.28;4955102;28;96904;-61
2021/06/03 07:42:51;;;;;;;6.43;5.43;;;21.00;99.90;;;20.99;71.73;101520.19;4925503;28;97197;-61
2021/06/03 07:45:23;;;;;;;6.33;4.70;;;20.90;99.90;;;20.93;57.71;101517.03;4967955;28;97184;-61
2021/06/03 07:47:51;;;;;;;8.73;5.20;;;20.90;99.90;;;20.95;67.95;101526.72;4944184;28;100837;-61
2021/06/03 07:50:17;;;;;;;5.67;4.97;;;20.90;99.90;;;20.95;71.21;101531.22;4950206;28;100318;-60
2021/06/03 07:52:44;;;;;;;5.40;4.90;;;21.00;99.90;;;20.92;65.28;101524.22;4950023;28;97639;-64
2021/06/03 07:55:14;;;;;;;6.73;4.90;;;20.90;99.90;;;20.94;69.42;101534.84;4949425;28;97376;-61
2021/06/03 07:57:42;;;;;;;8.37;5.50;;;20.90;99.90;;;20.91;50.73;101535.91;4950626;28;97610;-61
2021/06/03 08:00:11;;;;;;;4.63;3.87;;;20.90;99.90;;;20.88;47.99;101530.75;4946458;28;101568;-61
2021/06/03 08:02:38;;;;;;;4.33;3.73;;;20.90;97.40;;;20.91;48.14;101535.91;4966992;28;97364;-61
2021/06/03 08:05:05;;;;;;;4.83;3.20;;;20.90;97.40;;;20.92;47.17;101548.38;4929912;28;98850;-61
2021/06/03 08:07:30;;;;;;;6.30;4.70;;;20.90;96.40;;;21.04;59.09;101542.22;4952370;28;100557;-61
2021/06/03 08:09:57;;;;;;;4.67;3.60;;;21.00;99.90;;;21.04;48.06;101538.66;4930925;28;100284;-61
2021/06/03 08:12:22;;;;;;;4.60;3.77;;;21.10;97.40;;;21.05;47.16;101540.38;4968850;28;97545;-61
2021/06/03 08:14:48;;;;;;;3.70;3.40;;;21.10;96.40;;;21.04;46.96;101531.47;4945207;28;97142;-61
2021/06/03 08:17:14;;;;;;;2.00;1.80;;;21.10;96.00;;;21.00;46.58;101535.34;4952169;28;97597;-61
2021/06/03 08:19:40;;;;;;;5.30;4.10;;;21.00;95.50;;;21.09;55.72;101529.34;4951043;28;98414;-61
2021/06/03 08:22:06;;;;;;;3.17;2.87;;;21.10;99.90;;;21.08;46.70;101532.13;4947748;28;97421;-60
2021/06/03 08:24:32;;;;;;;4.80;3.63;;;21.10;95.50;;;21.12;46.89;101532.78;4934450;28;97031;-61
2021/06/03 08:26:58;;;;;;;3.90;3.60;;;21.10;96.20;;;21.12;46.89;101538.16;4945902;28;98293;-61
2021/06/03 08:29:24;;;;;;;3.40;3.07;;;21.20;95.80;;;21.20;47.42;101538.50;4952593;28;116278;-61
2021/06/03 08:31:51;;;;;;;6.20;4.40;;;21.20;97.00;;;21.30;62.95;101542.34;4930186;28;97204;-61
2021/06/03 08:34:18;;;;;;;4.60;4.23;;;21.30;99.90;;;21.22;47.30;101539.28;4953270;28;97053;-61
2021/06/03 08:36:44;;;;;;;4.00;3.60;;;21.30;96.40;;;21.18;50.97;101532.41;4950132;28;97425;-64
2021/06/03 08:39:10;;;;;;;3.90;3.57;;;21.20;97.10;;;21.16;46.55;101535.19;4946363;28;102685;-61
2021/06/03 08:41:41;;;;;;;4.87;3.83;;;21.20;95.30;;;21.20;46.76;101551.94;4979584;28;96828;-61
2021/06/03 08:44:09;;;;;;;4.30;3.90;;;21.20;96.50;;;21.28;54.53;101557.69;4928919;28;97314;-61
2021/06/03 08:46:36;;;;;;;4.20;3.80;;;21.30;99.90;;;21.27;53.45;101553.28;4949215;28;97704;-61
2021/06/03 08:49:08;;;;;;;3.50;3.20;;;21.30;99.50;;;21.27;52.45;101555.97;4934297;28;97212;-60
2021/06/03 08:51:34;;;;;;;6.63;4.20;;;21.30;97.30;;;21.35;58.95;101564.34;4948460;28;97702;-61
2021/06/03 08:54:01;;;;;;;6.67;4.30;;;21.40;99.90;;;21.34;55.80;101568.00;4955951;28;97391;-61
2021/06/03 08:56:28;;;;;;;6.40;4.73;;;21.40;99.90;;;21.36;60.40;101566.06;4946900;28;99398;-60
2021/06/03 08:58:59;;;;;;;5.63;4.97;;;21.40;99.90;;;21.38;57.09;101572.19;4960034;28;99524;-61
2021/06/03 09:01:27;;;;;;;4.73;4.33;;;21.50;99.90;;;21.39;65.09;101565.88;4957382;28;97084;-61
2021/06/03 09:03:53;;;;;;;4.40;4.00;;;21.40;99.90;;;21.36;61.55;101569.63;4946071;28;96984;-60
2021/06/03 09:06:20;;;;;;;4.63;4.20;;;21.40;99.90;;;21.37;58.04;101567.78;4954380;28;97557;-61
2021/06/03 09:08:56;;;;;;;4.90;4.00;;;21.40;99.90;;;21.42;66.07;101568.38;4974269;28;97337;-60
2021/06/03 09:11:22;;;;;;;4.50;4.10;;;21.40;99.90;;;21.39;64.77;101563.19;4975673;28;97337;-60
2021/06/03 09:13:57;;;;;;;5.30;4.53;;;21.40;99.90;;;21.38;64.65;101567.69;4945257;28;96866;-61
2021/06/03 09:16:29;;;;;;;4.90;4.10;;;21.40;99.90;;;21.37;65.82;101570.47;4946332;28;97722;-61
2021/06/03 09:19:00;;;;;;;5.07;4.43;;;21.40;99.90;;;21.30;52.46;101569.19;4942352;28;99237;-61
2021/06/03 09:21:30;;;;;;;7.40;5.00;;;21.40;99.90;;;21.31;57.13;101584.31;4978033;28;97400;-61
2021/06/03 09:24:07;;;;;;;6.10;5.20;;;21.30;99.90;;;21.30;51.31;101590.66;4930318;28;96987;-61
2021/06/03 09:26:45;;;;;;;6.33;5.43;;;21.30;99.90;;;21.30;60.09;101590.66;4976350;28;97711;-60
2021/06/03 09:29:20;;;;;;;6.83;5.77;;;21.30;99.90;;;21.31;61.59;101597.72;4942303;28;104237;-61
2021/06/03 09:31:46;;;;;;;7.87;6.57;;;21.30;99.90;;;21.29;62.31;101605.03;4943695;28;97421;-61
2021/06/03 09:34:31;;;;;;;10.67;6.80;;;21.30;99.90;;;21.29;49.16;101599.66;4951394;28;96798;-60
2021/06/03 09:37:07;;;;;;;8.90;7.27;;;21.30;98.60;;;21.26;48.03;101605.19;4940646;28;101500;-60
2021/06/03 09:39:38;;;;;;;8.77;7.40;;;21.30;97.40;;;21.27;55.69;101594.41;4971692;28;99036;-60
2021/06/03 09:42:21;;;;;;;9.87;7.50;;;21.20;99.90;;;21.40;67.77;101594.41;4939813;28;97037;-61
2021/06/03 09:44:50;;;;;;;9.97;8.13;;;21.40;99.90;;;21.38;69.35;101599.03;4927361;28;97502;-61
2021/06/03 09:47:22;;;;;;;10.00;9.00;;;21.40;99.90;;;21.39;70.83;101595.38;4975961;28;100383;-60
2021/06/03 09:49:54;;;;;;;11.30;9.80;;;21.50;99.90;;;21.42;74.20;101600.56;4958302;28;98579;-61
2021/06/03 09:52:25;;;;;;;9.90;8.90;;;21.50;99.90;;;21.38;73.34;101599.03;4982684;28;98183;-61
2021/06/03 09:55:04;;;;;;;10.17;8.27;;;21.40;99.90;;;21.37;73.09;101597.31;4950887;28;96655;-61
2021/06/03 09:57:45;;;;;;;10.50;9.00;;;21.40;99.90;;;21.32;67.54;101594.94;4946416;28;99061;-61
2021/06/03 10:00:20;;;;;;;11.27;9.40;;;21.30;99.90;;;21.32;72.84;101599.44;4944696;28;102281;-61
2021/06/03 10:02:47;;;;;;;13.03;10.73;;;21.40;99.90;;;21.29;73.51;101605.03;4948023;28;97389;-61
2021/06/03 10:05:15;;;;;;;12.73;9.77;;;21.30;99.90;;;21.31;76.21;101605.78;4950922;28;97266;-61
2021/06/03 10:07:55;;;;;;;14.00;9.47;;;21.30;99.90;;;21.22;54.94;101598.28;4981428;28;99904;-60
2021/06/03 10:10:21;;;;;;;10.10;9.10;;;21.20;99.90;;;21.20;65.09;101600.22;4953999;28;102717;-61
2021/06/03 10:12:49;;;;;;;10.57;9.47;;;21.20;99.90;;;21.22;73.45;101599.16;4946938;28;97540;-61
2021/06/03 10:15:21;;;;;;;12.73;10.50;;;21.20;99.90;;;21.21;71.27;101591.22;4986529;28;97024;-61
2021/06/03 10:17:48;;;;;;;10.50;9.50;;;21.20;99.90;;;21.24;76.59;101597.22;4945688;28;98541;-61